sensor_id;sensor_type;location;lat;lon;timestamp;P1;durP1;ratioP1;P2;durP2;ratioP2
16385;SDS011;8302;51.154;4.456;2023-11-21T00:01:01;4.05;;;2.70;;
16385;SDS011;8302;51.154;4.456;2023-11-21T00:03:30;6.53;;;3.30;;
16385;SDS011;8302;51.154;4.456;2023-11-21T00:05:58;5.18;;;3.40;;
16385;SDS011;8302;51.154;4.456;2023-11-21T00:08:27;4.47;;;3.30;;
16385;SDS011;8302;51.154;4.456;2023-11-21T00:10:57;8.20;;;3.47;;
16385;SDS011;8302;51.154;4.456;2023-11-21T00:13:26;4.82;;;3.22;;
16385;SDS011;8302;51.154;4.456;2023-11-21T00:15:54;6.78;;;3.25;;
16385;SDS011;8302;51.154;4.456;2023-11-21T00:18:22;6.75;;;3.20;;
16385;SDS011;8302;51.154;4.456;2023-11-21T00:20:49;5.03;;;3.45;;
16385;SDS011;8302;51.154;4.456;2023-11-21T00:23:17;6.25;;;2.97;;
16385;SDS011;8302;51.154;4.456;2023-11-21T00:25:45;5.68;;;3.40;;
16385;SDS011;8302;51.154;4.456;2023-11-21T00:28:14;4.55;;;2.40;;
16385;SDS011;8302;51.154;4.456;2023-11-21T00:30:42;5.13;;;2.75;;
16385;SDS011;8302;51.154;4.456;2023-11-21T00:33:10;5.35;;;3.50;;
16385;SDS011;8302;51.154;4.456;2023-11-21T00:35:37;5.07;;;2.90;;
16385;SDS011;8302;51.154;4.456;2023-11-21T00:38:05;5.97;;;4.03;;
16385;SDS011;8302;51.154;4.456;2023-11-21T00:40:34;6.30;;;3.35;;
16385;SDS011;8302;51.154;4.456;2023-11-21T00:43:02;6.10;;;3.38;;
16385;SDS011;8302;51.154;4.456;2023-11-21T00:45:33;4.80;;;2.97;;
16385;SDS011;8302;51.154;4.456;2023-11-21T00:48:03;6.15;;;3.42;;
16385;SDS011;8302;51.154;4.456;2023-11-21T00:50:31;7.05;;;3.65;;
16385;SDS011;8302;51.154;4.456;2023-11-21T00:52:59;7.55;;;3.25;;
16385;SDS011;8302;51.154;4.456;2023-11-21T00:55:28;4.65;;;3.17;;
16385;SDS011;8302;51.154;4.456;2023-11-21T00:57:56;4.70;;;3.28;;
16385;SDS011;8302;51.154;4.456;2023-11-21T01:00:24;4.97;;;3.35;;
16385;SDS011;8302;51.154;4.456;2023-11-21T01:02:53;4.70;;;3.40;;
16385;SDS011;8302;51.154;4.456;2023-11-21T01:05:21;6.63;;;3.30;;
16385;SDS011;8302;51.154;4.456;2023-11-21T01:07:49;7.20;;;3.42;;
16385;SDS011;8302;51.154;4.456;2023-11-21T01:10:17;6.72;;;3.42;;
16385;SDS011;8302;51.154;4.456;2023-11-21T01:12:44;6.00;;;3.47;;
16385;SDS011;8302;51.154;4.456;2023-11-21T01:15:12;5.18;;;3.15;;
16385;SDS011;8302;51.154;4.456;2023-11-21T01:17:40;5.38;;;3.33;;
16385;SDS011;8302;51.154;4.456;2023-11-21T01:20:10;7.15;;;3.53;;
16385;SDS011;8302;51.154;4.456;2023-11-21T01:22:40;5.28;;;3.05;;
16385;SDS011;8302;51.154;4.456;2023-11-21T01:25:08;6.45;;;3.75;;
16385;SDS011;8302;51.154;4.456;2023-11-21T01:27:35;5.95;;;3.15;;
16385;SDS011;8302;51.154;4.456;2023-11-21T01:30:04;4.78;;;3.22;;
16385;SDS011;8302;51.154;4.456;2023-11-21T01:32:33;6.88;;;3.40;;
16385;SDS011;8302;51.154;4.456;2023-11-21T01:35:02;5.55;;;3.10;;
16385;SDS011;8302;51.154;4.456;2023-11-21T01:37:34;4.65;;;2.88;;
16385;SDS011;8302;51.154;4.456;2023-11-21T01:40:02;5.75;;;3.47;;
16385;SDS011;8302;51.154;4.456;2023-11-21T01:42:35;3.97;;;2.80;;
16385;SDS011;8302;51.154;4.456;2023-11-21T01:45:02;7.97;;;3.72;;
16385;SDS011;8302;51.154;4.456;2023-11-21T01:47:31;7.53;;;3.75;;
16385;SDS011;8302;51.154;4.456;2023-11-21T01:49:59;5.97;;;3.00;;
16385;SDS011;8302;51.154;4.456;2023-11-21T01:52:27;4.50;;;3.53;;
16385;SDS011;8302;51.154;4.456;2023-11-21T01:54:57;5.53;;;3.17;;
16385;SDS011;8302;51.154;4.456;2023-11-21T01:57:25;5.47;;;3.05;;
16385;SDS011;8302;51.154;4.456;2023-11-21T01:59:53;6.80;;;3.30;;
16385;SDS011;8302;51.154;4.456;2023-11-21T02:02:21;5.55;;;3.17;;
16385;SDS011;8302;51.154;4.456;2023-11-21T02:04:49;8.48;;;3.40;;
16385;SDS011;8302;51.154;4.456;2023-11-21T02:10:01;6.85;;;3.45;;
16385;SDS011;8302;51.154;4.456;2023-11-21T02:12:29;4.55;;;3.30;;
16385;SDS011;8302;51.154;4.456;2023-11-21T02:14:56;4.57;;;3.17;;
16385;SDS011;8302;51.154;4.456;2023-11-21T02:17:24;7.38;;;3.08;;
16385;SDS011;8302;51.154;4.456;2023-11-21T02:19:53;5.93;;;3.58;;
16385;SDS011;8302;51.154;4.456;2023-11-21T02:22:22;5.43;;;3.78;;
16385;SDS011;8302;51.154;4.456;2023-11-21T02:24:54;9.05;;;3.45;;
16385;SDS011;8302;51.154;4.456;2023-11-21T02:27:22;7.95;;;3.45;;
16385;SDS011;8302;51.154;4.456;2023-11-21T02:29:49;5.70;;;3.75;;
16385;SDS011;8302;51.154;4.456;2023-11-21T02:32:17;5.43;;;3.25;;
16385;SDS011;8302;51.154;4.456;2023-11-21T02:34:49;8.88;;;3.85;;
16385;SDS011;8302;51.154;4.456;2023-11-21T02:37:17;5.72;;;3.42;;
16385;SDS011;8302;51.154;4.456;2023-11-21T02:39:44;5.10;;;3.15;;
16385;SDS011;8302;51.154;4.456;2023-11-21T02:42:13;6.43;;;3.80;;
16385;SDS011;8302;51.154;4.456;2023-11-21T02:44:41;5.70;;;3.33;;
16385;SDS011;8302;51.154;4.456;2023-11-21T02:47:09;5.38;;;3.45;;
16385;SDS011;8302;51.154;4.456;2023-11-21T02:49:37;8.77;;;3.85;;
16385;SDS011;8302;51.154;4.456;2023-11-21T02:52:04;5.80;;;3.50;;
16385;SDS011;8302;51.154;4.456;2023-11-21T02:54:32;5.00;;;3.20;;
16385;SDS011;8302;51.154;4.456;2023-11-21T02:57:02;5.25;;;3.30;;
16385;SDS011;8302;51.154;4.456;2023-11-21T02:59:32;5.50;;;3.15;;
16385;SDS011;8302;51.154;4.456;2023-11-21T03:01:59;6.22;;;3.38;;
16385;SDS011;8302;51.154;4.456;2023-11-21T03:04:27;6.30;;;3.58;;
16385;SDS011;8302;51.154;4.456;2023-11-21T03:06:55;5.47;;;3.17;;
16385;SDS011;8302;51.154;4.456;2023-11-21T03:09:23;7.18;;;3.70;;
16385;SDS011;8302;51.154;4.456;2023-11-21T03:11:50;9.07;;;3.38;;
16385;SDS011;8302;51.154;4.456;2023-11-21T03:14:18;5.20;;;3.08;;
16385;SDS011;8302;51.154;4.456;2023-11-21T03:16:48;6.20;;;3.53;;
16385;SDS011;8302;51.154;4.456;2023-11-21T03:19:16;6.38;;;3.45;;
16385;SDS011;8302;51.154;4.456;2023-11-21T03:21:44;6.30;;;3.35;;
16385;SDS011;8302;51.154;4.456;2023-11-21T03:24:11;6.80;;;3.78;;
16385;SDS011;8302;51.154;4.456;2023-11-21T03:26:39;5.30;;;3.22;;
16385;SDS011;8302;51.154;4.456;2023-11-21T03:29:07;4.68;;;3.10;;
16385;SDS011;8302;51.154;4.456;2023-11-21T03:31:35;6.43;;;3.25;;
16385;SDS011;8302;51.154;4.456;2023-11-21T03:34:04;5.47;;;3.17;;
16385;SDS011;8302;51.154;4.456;2023-11-21T03:36:32;3.85;;;3.25;;
16385;SDS011;8302;51.154;4.456;2023-11-21T03:39:00;4.38;;;2.95;;
16385;SDS011;8302;51.154;4.456;2023-11-21T03:41:28;6.28;;;3.55;;
16385;SDS011;8302;51.154;4.456;2023-11-21T03:43:55;4.95;;;3.55;;
16385;SDS011;8302;51.154;4.456;2023-11-21T03:46:23;5.75;;;3.55;;
16385;SDS011;8302;51.154;4.456;2023-11-21T03:48:51;4.88;;;3.20;;
16385;SDS011;8302;51.154;4.456;2023-11-21T03:51:20;6.13;;;3.10;;
16385;SDS011;8302;51.154;4.456;2023-11-21T03:53:48;6.78;;;3.50;;
16385;SDS011;8302;51.154;4.456;2023-11-21T03:56:15;5.15;;;3.00;;
16385;SDS011;8302;51.154;4.456;2023-11-21T03:58:43;4.78;;;3.22;;
16385;SDS011;8302;51.154;4.456;2023-11-21T04:01:11;5.50;;;3.03;;
16385;SDS011;8302;51.154;4.456;2023-11-21T04:03:38;7.20;;;3.92;;
16385;SDS011;8302;51.154;4.456;2023-11-21T04:06:07;4.22;;;3.22;;
16385;SDS011;8302;51.154;4.456;2023-11-21T04:08:36;5.57;;;3.30;;
16385;SDS011;8302;51.154;4.456;2023-11-21T04:11:04;4.97;;;3.45;;
16385;SDS011;8302;51.154;4.456;2023-11-21T04:13:31;6.63;;;3.30;;
16385;SDS011;8302;51.154;4.456;2023-11-21T04:15:59;4.25;;;2.95;;
16385;SDS011;8302;51.154;4.456;2023-11-21T04:18:29;6.22;;;3.20;;
16385;SDS011;8302;51.154;4.456;2023-11-21T04:20:57;4.97;;;2.85;;
16385;SDS011;8302;51.154;4.456;2023-11-21T04:23:25;5.20;;;3.28;;
16385;SDS011;8302;51.154;4.456;2023-11-21T04:25:54;5.32;;;3.00;;
16385;SDS011;8302;51.154;4.456;2023-11-21T04:28:23;4.15;;;3.10;;
16385;SDS011;8302;51.154;4.456;2023-11-21T04:30:51;8.60;;;3.70;;
16385;SDS011;8302;51.154;4.456;2023-11-21T04:33:19;4.72;;;2.95;;
16385;SDS011;8302;51.154;4.456;2023-11-21T04:35:47;5.45;;;3.40;;
16385;SDS011;8302;51.154;4.456;2023-11-21T04:38:15;3.63;;;2.70;;
16385;SDS011;8302;51.154;4.456;2023-11-21T04:40:43;6.30;;;3.50;;
16385;SDS011;8302;51.154;4.456;2023-11-21T04:43:13;5.82;;;3.20;;
16385;SDS011;8302;51.154;4.456;2023-11-21T04:45:41;5.03;;;3.13;;
16385;SDS011;8302;51.154;4.456;2023-11-21T04:48:08;5.35;;;3.30;;
16385;SDS011;8302;51.154;4.456;2023-11-21T04:50:36;4.93;;;2.83;;
16385;SDS011;8302;51.154;4.456;2023-11-21T04:53:04;5.28;;;2.60;;
16385;SDS011;8302;51.154;4.456;2023-11-21T04:55:32;5.20;;;3.33;;
16385;SDS011;8302;51.154;4.456;2023-11-21T04:58:00;5.38;;;3.00;;
16385;SDS011;8302;51.154;4.456;2023-11-21T05:00:29;6.32;;;2.63;;
16385;SDS011;8302;51.154;4.456;2023-11-21T05:02:57;5.60;;;3.22;;
16385;SDS011;8302;51.154;4.456;2023-11-21T05:05:25;7.07;;;3.20;;
16385;SDS011;8302;51.154;4.456;2023-11-21T05:07:52;4.63;;;2.63;;
16385;SDS011;8302;51.154;4.456;2023-11-21T05:10:20;5.30;;;3.08;;
16385;SDS011;8302;51.154;4.456;2023-11-21T05:12:49;6.28;;;3.13;;
16385;SDS011;8302;51.154;4.456;2023-11-21T05:15:17;5.45;;;3.15;;
16385;SDS011;8302;51.154;4.456;2023-11-21T05:17:46;3.88;;;3.13;;
16385;SDS011;8302;51.154;4.456;2023-11-21T05:20:16;4.57;;;2.90;;
16385;SDS011;8302;51.154;4.456;2023-11-21T05:22:47;6.35;;;3.35;;
16385;SDS011;8302;51.154;4.456;2023-11-21T05:25:15;5.28;;;3.20;;
16385;SDS011;8302;51.154;4.456;2023-11-21T05:27:44;7.10;;;3.20;;
16385;SDS011;8302;51.154;4.456;2023-11-21T05:30:13;4.85;;;3.03;;
16385;SDS011;8302;51.154;4.456;2023-11-21T05:32:41;5.43;;;3.58;;
16385;SDS011;8302;51.154;4.456;2023-11-21T05:35:11;3.72;;;2.80;;
16385;SDS011;8302;51.154;4.456;2023-11-21T05:37:42;4.70;;;2.83;;
16385;SDS011;8302;51.154;4.456;2023-11-21T05:40:10;7.10;;;3.63;;
16385;SDS011;8302;51.154;4.456;2023-11-21T05:42:39;6.50;;;3.22;;
16385;SDS011;8302;51.154;4.456;2023-11-21T05:45:07;4.55;;;2.55;;
16385;SDS011;8302;51.154;4.456;2023-11-21T05:47:37;4.57;;;2.47;;
16385;SDS011;8302;51.154;4.456;2023-11-21T05:50:07;5.75;;;3.15;;
16385;SDS011;8302;51.154;4.456;2023-11-21T05:52:40;5.70;;;3.05;;
16385;SDS011;8302;51.154;4.456;2023-11-21T05:55:08;6.03;;;3.08;;
16385;SDS011;8302;51.154;4.456;2023-11-21T05:57:36;4.78;;;3.10;;
16385;SDS011;8302;51.154;4.456;2023-11-21T06:00:04;4.00;;;2.72;;
16385;SDS011;8302;51.154;4.456;2023-11-21T06:02:37;5.93;;;3.15;;
16385;SDS011;8302;51.154;4.456;2023-11-21T06:05:06;3.88;;;2.67;;
16385;SDS011;8302;51.154;4.456;2023-11-21T06:07:34;6.57;;;3.15;;
16385;SDS011;8302;51.154;4.456;2023-11-21T06:10:03;5.82;;;3.42;;
16385;SDS011;8302;51.154;4.456;2023-11-21T06:12:32;9.50;;;3.95;;
16385;SDS011;8302;51.154;4.456;2023-11-21T06:15:02;6.68;;;3.65;;
16385;SDS011;8302;51.154;4.456;2023-11-21T06:17:31;7.38;;;4.07;;
16385;SDS011;8302;51.154;4.456;2023-11-21T06:20:00;9.95;;;4.40;;
16385;SDS011;8302;51.154;4.456;2023-11-21T06:22:30;17.92;;;8.95;;
16385;SDS011;8302;51.154;4.456;2023-11-21T06:24:58;16.40;;;8.85;;
16385;SDS011;8302;51.154;4.456;2023-11-21T06:27:27;18.48;;;9.43;;
16385;SDS011;8302;51.154;4.456;2023-11-21T06:29:55;15.25;;;8.63;;
16385;SDS011;8302;51.154;4.456;2023-11-21T06:32:22;17.10;;;9.10;;
16385;SDS011;8302;51.154;4.456;2023-11-21T06:34:50;20.00;;;10.02;;
16385;SDS011;8302;51.154;4.456;2023-11-21T06:37:20;19.08;;;9.65;;
16385;SDS011;8302;51.154;4.456;2023-11-21T06:39:49;19.95;;;10.18;;
16385;SDS011;8302;51.154;4.456;2023-11-21T06:42:18;20.70;;;9.65;;
16385;SDS011;8302;51.154;4.456;2023-11-21T06:44:48;23.10;;;9.52;;
16385;SDS011;8302;51.154;4.456;2023-11-21T06:47:17;22.23;;;9.52;;
16385;SDS011;8302;51.154;4.456;2023-11-21T06:49:46;26.48;;;10.20;;
16385;SDS011;8302;51.154;4.456;2023-11-21T06:52:15;22.58;;;8.88;;
16385;SDS011;8302;51.154;4.456;2023-11-21T06:54:43;28.25;;;9.77;;
16385;SDS011;8302;51.154;4.456;2023-11-21T06:57:11;23.88;;;9.25;;
16385;SDS011;8302;51.154;4.456;2023-11-21T06:59:39;33.40;;;10.27;;
16385;SDS011;8302;51.154;4.456;2023-11-21T07:02:08;28.52;;;9.77;;
16385;SDS011;8302;51.154;4.456;2023-11-21T07:04:36;21.75;;;9.10;;
16385;SDS011;8302;51.154;4.456;2023-11-21T07:07:03;22.27;;;9.20;;
16385;SDS011;8302;51.154;4.456;2023-11-21T07:09:33;26.77;;;10.20;;
16385;SDS011;8302;51.154;4.456;2023-11-21T07:12:01;20.92;;;8.43;;
16385;SDS011;8302;51.154;4.456;2023-11-21T07:14:32;20.45;;;9.40;;
16385;SDS011;8302;51.154;4.456;2023-11-21T07:16:59;20.08;;;9.35;;
16385;SDS011;8302;51.154;4.456;2023-11-21T07:19:29;20.98;;;8.55;;
16385;SDS011;8302;51.154;4.456;2023-11-21T07:21:57;18.88;;;7.78;;
16385;SDS011;8302;51.154;4.456;2023-11-21T07:24:24;21.23;;;9.70;;
16385;SDS011;8302;51.154;4.456;2023-11-21T07:26:53;18.35;;;8.80;;
16385;SDS011;8302;51.154;4.456;2023-11-21T07:29:23;17.25;;;8.85;;
16385;SDS011;8302;51.154;4.456;2023-11-21T07:31:52;21.33;;;8.75;;
16385;SDS011;8302;51.154;4.456;2023-11-21T07:34:20;18.00;;;9.00;;
16385;SDS011;8302;51.154;4.456;2023-11-21T07:36:49;20.75;;;8.65;;
16385;SDS011;8302;51.154;4.456;2023-11-21T07:39:17;18.10;;;8.65;;
16385;SDS011;8302;51.154;4.456;2023-11-21T07:41:44;12.05;;;7.43;;
16385;SDS011;8302;51.154;4.456;2023-11-21T07:44:15;17.40;;;7.88;;
16385;SDS011;8302;51.154;4.456;2023-11-21T07:46:44;22.25;;;8.15;;
16385;SDS011;8302;51.154;4.456;2023-11-21T07:49:12;14.57;;;7.47;;
16385;SDS011;8302;51.154;4.456;2023-11-21T07:51:42;18.77;;;8.02;;
16385;SDS011;8302;51.154;4.456;2023-11-21T07:54:11;16.02;;;7.63;;
16385;SDS011;8302;51.154;4.456;2023-11-21T07:56:39;11.43;;;7.28;;
16385;SDS011;8302;51.154;4.456;2023-11-21T07:59:06;15.80;;;7.65;;
16385;SDS011;8302;51.154;4.456;2023-11-21T08:01:34;15.68;;;7.80;;
16385;SDS011;8302;51.154;4.456;2023-11-21T08:04:02;13.73;;;8.07;;
16385;SDS011;8302;51.154;4.456;2023-11-21T08:06:31;16.30;;;7.35;;
16385;SDS011;8302;51.154;4.456;2023-11-21T08:08:59;13.65;;;7.70;;
16385;SDS011;8302;51.154;4.456;2023-11-21T08:11:28;13.00;;;7.47;;
16385;SDS011;8302;51.154;4.456;2023-11-21T08:13:57;15.00;;;7.70;;
16385;SDS011;8302;51.154;4.456;2023-11-21T08:16:25;14.48;;;7.40;;
16385;SDS011;8302;51.154;4.456;2023-11-21T08:18:54;14.27;;;7.28;;
16385;SDS011;8302;51.154;4.456;2023-11-21T08:21:21;13.05;;;7.18;;
16385;SDS011;8302;51.154;4.456;2023-11-21T08:23:50;11.38;;;6.93;;
16385;SDS011;8302;51.154;4.456;2023-11-21T08:26:21;12.02;;;6.82;;
16385;SDS011;8302;51.154;4.456;2023-11-21T08:28:50;12.13;;;6.63;;
16385;SDS011;8302;51.154;4.456;2023-11-21T08:31:23;11.98;;;6.80;;
16385;SDS011;8302;51.154;4.456;2023-11-21T08:33:51;14.32;;;6.60;;
16385;SDS011;8302;51.154;4.456;2023-11-21T08:36:19;14.15;;;6.97;;
16385;SDS011;8302;51.154;4.456;2023-11-21T08:38:47;10.52;;;6.85;;
16385;SDS011;8302;51.154;4.456;2023-11-21T08:41:15;12.35;;;6.80;;
16385;SDS011;8302;51.154;4.456;2023-11-21T08:43:43;13.43;;;6.57;;
16385;SDS011;8302;51.154;4.456;2023-11-21T08:46:12;12.25;;;6.10;;
16385;SDS011;8302;51.154;4.456;2023-11-21T08:48:40;12.25;;;6.50;;
16385;SDS011;8302;51.154;4.456;2023-11-21T08:51:10;12.10;;;6.25;;
16385;SDS011;8302;51.154;4.456;2023-11-21T08:53:38;11.43;;;6.60;;
16385;SDS011;8302;51.154;4.456;2023-11-21T08:56:06;10.77;;;6.32;;
16385;SDS011;8302;51.154;4.456;2023-11-21T08:58:35;11.43;;;6.43;;
16385;SDS011;8302;51.154;4.456;2023-11-21T09:01:04;8.98;;;5.78;;
16385;SDS011;8302;51.154;4.456;2023-11-21T09:03:34;13.93;;;6.70;;
16385;SDS011;8302;51.154;4.456;2023-11-21T09:06:03;12.13;;;6.32;;
16385;SDS011;8302;51.154;4.456;2023-11-21T09:08:31;13.05;;;6.43;;
16385;SDS011;8302;51.154;4.456;2023-11-21T09:10:58;11.13;;;6.07;;
16385;SDS011;8302;51.154;4.456;2023-11-21T09:13:26;14.40;;;5.82;;
16385;SDS011;8302;51.154;4.456;2023-11-21T09:15:54;9.55;;;6.00;;
16385;SDS011;8302;51.154;4.456;2023-11-21T09:18:21;11.40;;;6.30;;
16385;SDS011;8302;51.154;4.456;2023-11-21T09:20:51;11.10;;;5.97;;
16385;SDS011;8302;51.154;4.456;2023-11-21T09:23:19;10.95;;;5.82;;
16385;SDS011;8302;51.154;4.456;2023-11-21T09:25:47;9.65;;;5.68;;
16385;SDS011;8302;51.154;4.456;2023-11-21T09:28:16;8.13;;;5.30;;
16385;SDS011;8302;51.154;4.456;2023-11-21T09:30:44;9.38;;;5.88;;
16385;SDS011;8302;51.154;4.456;2023-11-21T09:33:11;9.02;;;5.72;;
16385;SDS011;8302;51.154;4.456;2023-11-21T09:35:39;8.75;;;5.47;;
16385;SDS011;8302;51.154;4.456;2023-11-21T09:38:08;10.93;;;6.45;;
16385;SDS011;8302;51.154;4.456;2023-11-21T09:40:37;7.68;;;5.30;;
16385;SDS011;8302;51.154;4.456;2023-11-21T09:43:06;11.05;;;5.80;;
16385;SDS011;8302;51.154;4.456;2023-11-21T09:45:35;9.27;;;5.60;;
16385;SDS011;8302;51.154;4.456;2023-11-21T09:48:03;9.65;;;5.38;;
16385;SDS011;8302;51.154;4.456;2023-11-21T09:50:31;6.55;;;4.68;;
16385;SDS011;8302;51.154;4.456;2023-11-21T09:53:03;8.98;;;5.30;;
16385;SDS011;8302;51.154;4.456;2023-11-21T09:55:38;7.28;;;4.63;;
16385;SDS011;8302;51.154;4.456;2023-11-21T09:58:07;9.07;;;5.25;;
16385;SDS011;8302;51.154;4.456;2023-11-21T10:00:39;8.02;;;4.97;;
16385;SDS011;8302;51.154;4.456;2023-11-21T10:03:08;7.57;;;4.53;;
16385;SDS011;8302;51.154;4.456;2023-11-21T10:05:36;6.95;;;4.13;;
16385;SDS011;8302;51.154;4.456;2023-11-21T10:08:04;6.50;;;4.50;;
16385;SDS011;8302;51.154;4.456;2023-11-21T10:10:34;8.02;;;4.85;;
16385;SDS011;8302;51.154;4.456;2023-11-21T10:13:04;7.13;;;4.60;;
16385;SDS011;8302;51.154;4.456;2023-11-21T10:15:34;7.63;;;4.22;;
16385;SDS011;8302;51.154;4.456;2023-11-21T10:18:02;6.75;;;4.40;;
16385;SDS011;8302;51.154;4.456;2023-11-21T10:20:32;8.27;;;4.78;;
16385;SDS011;8302;51.154;4.456;2023-11-21T10:23:01;6.60;;;4.63;;
16385;SDS011;8302;51.154;4.456;2023-11-21T10:25:30;7.30;;;4.13;;
16385;SDS011;8302;51.154;4.456;2023-11-21T10:27:58;8.15;;;4.32;;
16385;SDS011;8302;51.154;4.456;2023-11-21T10:30:31;9.48;;;4.20;;
16385;SDS011;8302;51.154;4.456;2023-11-21T10:33:00;6.97;;;4.32;;
16385;SDS011;8302;51.154;4.456;2023-11-21T10:35:44;6.20;;;4.13;;
16385;SDS011;8302;51.154;4.456;2023-11-21T10:38:15;6.85;;;4.45;;
16385;SDS011;8302;51.154;4.456;2023-11-21T10:40:43;7.03;;;4.25;;
16385;SDS011;8302;51.154;4.456;2023-11-21T10:43:11;5.30;;;3.78;;
16385;SDS011;8302;51.154;4.456;2023-11-21T10:45:41;4.70;;;3.10;;
16385;SDS011;8302;51.154;4.456;2023-11-21T10:48:10;6.57;;;3.75;;
16385;SDS011;8302;51.154;4.456;2023-11-21T10:50:38;5.95;;;4.07;;
16385;SDS011;8302;51.154;4.456;2023-11-21T10:53:05;6.35;;;3.90;;
16385;SDS011;8302;51.154;4.456;2023-11-21T10:55:34;5.32;;;3.50;;
16385;SDS011;8302;51.154;4.456;2023-11-21T10:58:02;6.80;;;3.50;;
16385;SDS011;8302;51.154;4.456;2023-11-21T11:00:31;6.57;;;3.67;;
16385;SDS011;8302;51.154;4.456;2023-11-21T11:03:00;8.20;;;3.50;;
16385;SDS011;8302;51.154;4.456;2023-11-21T11:05:29;6.55;;;3.75;;
16385;SDS011;8302;51.154;4.456;2023-11-21T11:08:00;6.47;;;3.50;;
16385;SDS011;8302;51.154;4.456;2023-11-21T11:10:30;4.97;;;3.45;;
16385;SDS011;8302;51.154;4.456;2023-11-21T11:12:58;5.13;;;3.30;;
16385;SDS011;8302;51.154;4.456;2023-11-21T11:15:26;6.45;;;3.20;;
16385;SDS011;8302;51.154;4.456;2023-11-21T11:17:54;3.83;;;2.83;;
16385;SDS011;8302;51.154;4.456;2023-11-21T11:20:27;4.65;;;2.72;;
16385;SDS011;8302;51.154;4.456;2023-11-21T11:23:05;5.35;;;2.97;;
16385;SDS011;8302;51.154;4.456;2023-11-21T11:25:37;4.85;;;3.00;;
16385;SDS011;8302;51.154;4.456;2023-11-21T11:28:07;3.70;;;2.78;;
16385;SDS011;8302;51.154;4.456;2023-11-21T11:30:39;4.18;;;2.75;;
16385;SDS011;8302;51.154;4.456;2023-11-21T11:33:11;4.35;;;3.13;;
16385;SDS011;8302;51.154;4.456;2023-11-21T11:35:45;4.35;;;2.83;;
16385;SDS011;8302;51.154;4.456;2023-11-21T11:38:15;3.13;;;2.63;;
16385;SDS011;8302;51.154;4.456;2023-11-21T11:40:44;3.33;;;2.25;;
16385;SDS011;8302;51.154;4.456;2023-11-21T11:43:13;3.15;;;2.85;;
16385;SDS011;8302;51.154;4.456;2023-11-21T11:45:41;4.10;;;2.65;;
16385;SDS011;8302;51.154;4.456;2023-11-21T11:48:10;4.25;;;2.33;;
16385;SDS011;8302;51.154;4.456;2023-11-21T11:50:43;4.22;;;2.53;;
16385;SDS011;8302;51.154;4.456;2023-11-21T11:53:32;3.47;;;2.17;;
16385;SDS011;8302;51.154;4.456;2023-11-21T11:58:43;3.55;;;2.22;;
16385;SDS011;8302;51.154;4.456;2023-11-21T12:01:11;3.38;;;2.17;;
16385;SDS011;8302;51.154;4.456;2023-11-21T12:03:40;3.95;;;2.53;;
16385;SDS011;8302;51.154;4.456;2023-11-21T12:06:09;2.78;;;1.92;;
16385;SDS011;8302;51.154;4.456;2023-11-21T12:08:38;2.63;;;2.03;;
16385;SDS011;8302;51.154;4.456;2023-11-21T12:11:05;2.92;;;2.10;;
16385;SDS011;8302;51.154;4.456;2023-11-21T12:13:33;2.42;;;1.85;;
16385;SDS011;8302;51.154;4.456;2023-11-21T12:16:01;3.17;;;1.90;;
16385;SDS011;8302;51.154;4.456;2023-11-21T12:18:29;3.13;;;2.28;;
16385;SDS011;8302;51.154;4.456;2023-11-21T12:20:57;2.33;;;2.00;;
16385;SDS011;8302;51.154;4.456;2023-11-21T12:23:26;3.22;;;2.05;;
16385;SDS011;8302;51.154;4.456;2023-11-21T12:25:54;2.40;;;1.45;;
16385;SDS011;8302;51.154;4.456;2023-11-21T12:28:21;2.72;;;1.95;;
16385;SDS011;8302;51.154;4.456;2023-11-21T12:30:49;3.70;;;2.25;;
16385;SDS011;8302;51.154;4.456;2023-11-21T12:33:23;2.65;;;2.10;;
16385;SDS011;8302;51.154;4.456;2023-11-21T12:35:52;2.25;;;1.80;;
16385;SDS011;8302;51.154;4.456;2023-11-21T12:38:20;3.65;;;1.95;;
16385;SDS011;8302;51.154;4.456;2023-11-21T12:40:52;2.88;;;1.80;;
16385;SDS011;8302;51.154;4.456;2023-11-21T12:43:21;3.35;;;2.10;;
16385;SDS011;8302;51.154;4.456;2023-11-21T12:45:49;2.90;;;1.98;;
16385;SDS011;8302;51.154;4.456;2023-11-21T12:48:16;3.25;;;1.80;;
16385;SDS011;8302;51.154;4.456;2023-11-21T12:50:50;2.63;;;1.88;;
16385;SDS011;8302;51.154;4.456;2023-11-21T12:53:19;3.90;;;1.90;;
16385;SDS011;8302;51.154;4.456;2023-11-21T12:55:47;3.40;;;1.88;;
16385;SDS011;8302;51.154;4.456;2023-11-21T12:58:20;2.85;;;1.90;;
16385;SDS011;8302;51.154;4.456;2023-11-21T13:00:49;2.88;;;1.70;;
16385;SDS011;8302;51.154;4.456;2023-11-21T13:03:18;2.75;;;1.98;;
16385;SDS011;8302;51.154;4.456;2023-11-21T13:05:52;2.10;;;1.38;;
16385;SDS011;8302;51.154;4.456;2023-11-21T13:08:23;1.60;;;1.50;;
16385;SDS011;8302;51.154;4.456;2023-11-21T13:10:52;1.48;;;1.35;;
16385;SDS011;8302;51.154;4.456;2023-11-21T13:13:23;2.38;;;1.40;;
16385;SDS011;8302;51.154;4.456;2023-11-21T13:15:55;1.55;;;1.40;;
16385;SDS011;8302;51.154;4.456;2023-11-21T13:18:23;2.00;;;1.30;;
16385;SDS011;8302;51.154;4.456;2023-11-21T13:20:53;2.80;;;1.40;;
16385;SDS011;8302;51.154;4.456;2023-11-21T13:23:21;1.95;;;1.30;;
16385;SDS011;8302;51.154;4.456;2023-11-21T13:25:49;3.00;;;1.23;;
16385;SDS011;8302;51.154;4.456;2023-11-21T13:28:29;2.17;;;1.38;;
16385;SDS011;8302;51.154;4.456;2023-11-21T13:30:59;1.65;;;1.38;;
16385;SDS011;8302;51.154;4.456;2023-11-21T13:33:30;2.33;;;1.67;;
16385;SDS011;8302;51.154;4.456;2023-11-21T13:35:59;2.22;;;1.30;;
16385;SDS011;8302;51.154;4.456;2023-11-21T13:38:28;1.48;;;1.38;;
16385;SDS011;8302;51.154;4.456;2023-11-21T13:40:59;2.88;;;1.33;;
16385;SDS011;8302;51.154;4.456;2023-11-21T13:43:28;3.33;;;1.63;;
16385;SDS011;8302;51.154;4.456;2023-11-21T13:45:57;1.92;;;1.45;;
16385;SDS011;8302;51.154;4.456;2023-11-21T13:48:29;2.45;;;1.20;;
16385;SDS011;8302;51.154;4.456;2023-11-21T13:51:07;1.92;;;1.42;;
16385;SDS011;8302;51.154;4.456;2023-11-21T13:53:42;1.58;;;1.30;;
16385;SDS011;8302;51.154;4.456;2023-11-21T13:56:10;1.67;;;1.27;;
16385;SDS011;8302;51.154;4.456;2023-11-21T13:58:43;2.45;;;1.27;;
16385;SDS011;8302;51.154;4.456;2023-11-21T14:01:17;2.05;;;1.17;;
16385;SDS011;8302;51.154;4.456;2023-11-21T14:04:07;1.40;;;1.30;;
16385;SDS011;8302;51.154;4.456;2023-11-21T14:06:45;2.03;;;1.10;;
16385;SDS011;8302;51.154;4.456;2023-11-21T14:09:15;2.03;;;1.27;;
16385;SDS011;8302;51.154;4.456;2023-11-21T14:11:49;2.08;;;1.40;;
16385;SDS011;8302;51.154;4.456;2023-11-21T14:14:20;1.40;;;1.13;;
16385;SDS011;8302;51.154;4.456;2023-11-21T14:16:47;1.95;;;1.33;;
16385;SDS011;8302;51.154;4.456;2023-11-21T14:19:16;1.42;;;1.13;;
16385;SDS011;8302;51.154;4.456;2023-11-21T14:21:44;1.30;;;1.20;;
16385;SDS011;8302;51.154;4.456;2023-11-21T14:24:15;2.78;;;1.42;;
16385;SDS011;8302;51.154;4.456;2023-11-21T14:26:44;1.67;;;1.38;;
16385;SDS011;8302;51.154;4.456;2023-11-21T14:29:12;1.83;;;1.20;;
16385;SDS011;8302;51.154;4.456;2023-11-21T14:31:42;1.92;;;1.33;;
16385;SDS011;8302;51.154;4.456;2023-11-21T14:34:10;2.08;;;1.30;;
16385;SDS011;8302;51.154;4.456;2023-11-21T14:36:38;2.05;;;1.17;;
16385;SDS011;8302;51.154;4.456;2023-11-21T14:39:06;1.63;;;1.35;;
16385;SDS011;8302;51.154;4.456;2023-11-21T14:41:39;1.42;;;1.10;;
16385;SDS011;8302;51.154;4.456;2023-11-21T14:44:07;1.42;;;1.33;;
16385;SDS011;8302;51.154;4.456;2023-11-21T14:46:38;1.50;;;1.30;;
16385;SDS011;8302;51.154;4.456;2023-11-21T14:49:10;1.25;;;1.10;;
16385;SDS011;8302;51.154;4.456;2023-11-21T14:51:46;1.95;;;1.35;;
16385;SDS011;8302;51.154;4.456;2023-11-21T14:54:27;1.25;;;1.15;;
16385;SDS011;8302;51.154;4.456;2023-11-21T14:57:07;1.83;;;1.30;;
16385;SDS011;8302;51.154;4.456;2023-11-21T14:59:42;1.90;;;1.30;;
16385;SDS011;8302;51.154;4.456;2023-11-21T15:02:10;1.73;;;1.40;;
16385;SDS011;8302;51.154;4.456;2023-11-21T15:04:48;1.58;;;1.17;;
16385;SDS011;8302;51.154;4.456;2023-11-21T15:07:19;1.50;;;1.20;;
16385;SDS011;8302;51.154;4.456;2023-11-21T15:09:45;1.27;;;0.98;;
16385;SDS011;8302;51.154;4.456;2023-11-21T15:12:13;2.88;;;1.40;;
16385;SDS011;8302;51.154;4.456;2023-11-21T15:14:42;3.60;;;1.70;;